New Milford, CT

6:25 AM EST on November 28, 2014 (GMT -0500)
Parkwood | Change Station
CLOSE
Current Station
Personal Weather Station
Location: New Milford, CT
Elevation: 856 ft
Nearby Weather Stations

Elev 856 ft 41.60 °N, 73.39 °W | Updated 58 seconds ago

Partly Cloudy
Partly Cloudy
23.0 °F
Feels Like 23 °F
N
0.3
Wind Variable Wind from West
Gusts 1.1 mph

Today
High -- | Low -- °F
--% Chance of Precip.
Yesterday
High -- | Low -- °F
Precip. -- in
6:57 AM 4:25 PM
Waxing Crescent, 39% visible
Pressure 30.10 in
Visibility 10.0 miles
Clouds Clear
Windchill 23 °F
Dew Point 22 °F
Humidity 95%
Rainfall 0.00 in
Snow Depth Not available.
UV 0 out of 12
Pollen .10 out of 12
Air Quality Not available.
Flu Activity Not available.
METAR KDXR 281053Z AUTO 30004KT 10SM CLR M03/M07 A3008 RMK AO2 SLP191 T10331067

More Conditions Fewer Conditions

Pressure 30.10 in
Visibility 10.0 miles
Clouds Clear
Windchill 23 °F
Dew Point 22 °F
Humidity 95%
Rainfall 0.00 in
Snow Depth Not available.
UV 0 out of 12
Pollen .10 out of 12
Air Quality Not available.
Flu Activity Not available.
METAR KDXR 281053Z AUTO 30004KT 10SM CLR M03/M07 A3008 RMK AO2 SLP191 T10331067

More Conditions Fewer Conditions

10-Day Weather Forecast

Almanac

Astronomy

Nov. 28, 2014 Rise Set
Actual Time
Civil Twilight
Nautical Twilight
Astronomical Twilight
Moon
Length of Visible Light
Length of Day
Tomorrow will be .
, % of the Moon is Illuminated

Today's Extremes

State Highs State Lows

Community

WunderPhotos

Upload Photos

1,774,192 photos uploaded!

WunderBlogs® & News

Nearby

Air Quality

  Air Quality AQ Index Pollutant
Not available.

Snow Depth

Station Depth Elevation

Earthquake Activity

City Distance Mag. Time & Date
Minimum magnitude displayed is 2.5.

Coastal Water Temperatures

Place Temperature

Nearby Weather Stations